Time;durP1;ratioP1;P1;durP2;ratioP2;P2;SDS_P1;SDS_P2;PMS_P1;PMS_P2;Temp;Humidity;BMP_temperature;BMP_pressure;BME280_temperature;BME280_humidity;BME280_pressure;Samples;Min_cycle;Max_cycle;Signal;HPM_P1;HPM_P2
2023/03/09 00:02:42;;;;;;;0.13;0.13;;;;;;;;;;6267415;23;20166;-88
2023/03/09 00:05:18;;;;;;;0.03;0.03;;;;;;;;;;6220508;23;20198;-88
2023/03/09 00:11:00;;;;;;;1.00;0.50;;;;;;;;;;6137498;23;20197;-89
2023/03/09 00:13:42;;;;;;;;;;;;;;;;;;;;;
2023/03/09 00:16:31;;;;;;;0.40;0.40;;;;;;;;;;6248293;23;20523;-90
2023/03/09 00:19:00;;;;;;;0.90;0.90;;;;;;;;;;6248695;23;20166;-89
2023/03/09 00:21:41;;;;;;;0.47;0.47;;;;;;;;;;6246718;23;20174;-88
2023/03/09 00:24:14;;;;;;;1.17;1.17;;;;;;;;;;6247328;23;20162;-88
2023/03/09 00:26:47;;;;;;;1.60;0.23;;;;;;;;;;6245883;23;20416;-89
2023/03/09 00:29:18;;;;;;;0.47;0.47;;;;;;;;;;6243595;23;20252;-88
2023/03/09 00:31:50;;;;;;;1.43;0.87;;;;;;;;;;6245499;23;20246;-89
2023/03/09 00:34:22;;;;;;;0.57;0.57;;;;;;;;;;6245472;23;20613;-89
2023/03/09 00:36:56;;;;;;;1.90;1.63;;;;;;;;;;6244282;23;20195;-89
2023/03/09 00:39:27;;;;;;;0.40;0.40;;;;;;;;;;6245186;23;20244;-89
2023/03/09 00:41:55;;;;;;;2.90;0.20;;;;;;;;;;6246064;23;20170;-87
2023/03/09 00:44:30;;;;;;;0.13;0.13;;;;;;;;;;6245167;23;20175;-88
2023/03/09 00:47:06;;;;;;;0.63;0.63;;;;;;;;;;6245287;23;20546;-89
2023/03/09 00:49:42;;;;;;;0.40;0.40;;;;;;;;;;6246223;23;20918;-90
2023/03/09 00:52:13;;;;;;;0.20;0.20;;;;;;;;;;6245413;23;20509;-88
2023/03/09 00:54:56;;;;;;;0.30;0.30;;;;;;;;;;6247697;23;20173;-89
2023/03/09 00:57:24;;;;;;;1.50;0.93;;;;;;;;;;6246495;23;20170;-89
2023/03/09 01:00:04;;;;;;;0.20;0.20;;;;;;;;;;6245266;23;20170;-89
2023/03/09 01:02:49;;;;;;;0.43;0.43;;;;;;;;;;6245104;23;20632;-89
2023/03/09 01:05:18;;;;;;;1.50;0.43;;;;;;;;;;6250077;23;20655;-90
2023/03/09 01:07:49;;;;;;;0.43;0.43;;;;;;;;;;6253908;23;20202;-88
2023/03/09 01:10:18;;;;;;;3.50;0.80;;;;;;;;;;6268827;23;20250;-89
2023/03/09 01:12:54;;;;;;;0.60;0.60;;;;;;;;;;6248395;23;20170;-89
2023/03/09 01:15:23;;;;;;;1.60;0.63;;;;;;;;;;6244771;23;20695;-88
2023/03/09 01:18:00;;;;;;;0.20;0.10;;;;;;;;;;6245328;23;20620;-88
2023/03/09 01:20:38;;;;;;;0.47;0.30;;;;;;;;;;6244004;23;20166;-88
2023/03/09 01:23:20;;;;;;;0.40;0.40;;;;;;;;;;6245314;23;20162;-88
2023/03/09 01:25:53;;;;;;;0.73;0.73;;;;;;;;;;6245432;23;20287;-90
2023/03/09 01:28:34;;;;;;;0.37;0.37;;;;;;;;;;6244995;23;20240;-89
2023/03/09 01:31:07;;;;;;;0.93;0.40;;;;;;;;;;6245227;23;20229;-88
2023/03/09 01:34:01;;;;;;;0.47;0.47;;;;;;;;;;6244701;23;20166;-90
2023/03/09 01:36:34;;;;;;;0.47;0.47;;;;;;;;;;6212419;23;20202;-89
2023/03/09 01:39:08;;;;;;;2.60;0.77;;;;;;;;;;6245053;22;20181;-89
2023/03/09 01:41:39;;;;;;;0.30;0.30;;;;;;;;;;6246870;22;20250;-88
2023/03/09 01:44:08;;;;;;;0.23;0.23;;;;;;;;;;6245082;22;20197;-89
2023/03/09 01:46:48;;;;;;;0.03;0.03;;;;;;;;;;6246701;22;20638;-90
2023/03/09 01:49:22;;;;;;;3.37;0.30;;;;;;;;;;6260730;22;20189;-90
2023/03/09 01:52:00;;;;;;;0.30;0.30;;;;;;;;;;6265888;22;20182;-87
2023/03/09 01:54:33;;;;;;;1.00;0.47;;;;;;;;;;6260527;22;20168;-89
2023/03/09 01:57:14;;;;;;;0.20;0.20;;;;;;;;;;6262285;22;20163;-88
2023/03/09 01:59:50;;;;;;;0.10;0.10;;;;;;;;;;6248281;22;20249;-89
2023/03/09 02:02:22;;;;;;;0.40;0.40;;;;;;;;;;6246622;22;20163;-90
2023/03/09 02:04:53;;;;;;;2.23;0.20;;;;;;;;;;6245393;23;20670;-88
2023/03/09 02:07:28;;;;;;;0.43;0.43;;;;;;;;;;6245941;22;20185;-89
2023/03/09 02:10:05;;;;;;;0.67;0.53;;;;;;;;;;6245779;22;20205;-90
2023/03/09 02:12:43;;;;;;;0.20;0.20;;;;;;;;;;6243241;22;20170;-89
2023/03/09 02:15:11;;;;;;;0.10;0.10;;;;;;;;;;6244222;22;20568;-89
2023/03/09 02:17:39;;;;;;;0.20;0.20;;;;;;;;;;6244406;22;20185;-89
2023/03/09 02:20:10;;;;;;;0.97;0.50;;;;;;;;;;6244015;22;20167;-89
2023/03/09 02:22:42;;;;;;;0.40;0.40;;;;;;;;;;6249687;23;20178;-88
2023/03/09 02:25:20;;;;;;;0.17;0.17;;;;;;;;;;6247992;22;20167;-90
2023/03/09 02:27:59;;;;;;;0.57;0.13;;;;;;;;;;6244914;22;20189;-88
2023/03/09 02:30:35;;;;;;;0.37;0.37;;;;;;;;;;6244830;22;20531;-89
2023/03/09 02:33:09;;;;;;;0.10;0.10;;;;;;;;;;6245020;22;20170;-89
2023/03/09 02:35:41;;;;;;;0.10;0.10;;;;;;;;;;6245286;22;20205;-89
2023/03/09 02:38:12;;;;;;;0.77;0.37;;;;;;;;;;6244779;23;20499;-89
2023/03/09 02:41:21;;;;;;;0.20;0.20;;;;;;;;;;6248865;23;20173;-88
2023/03/09 02:44:01;;;;;;;0.43;0.43;;;;;;;;;;6243565;23;20177;-90
2023/03/09 02:46:35;;;;;;;0.10;0.10;;;;;;;;;;6244077;23;20194;-88
2023/03/09 02:49:06;;;;;;;0.60;0.60;;;;;;;;;;6243686;23;20178;-89
2023/03/09 02:51:34;;;;;;;0.10;0.10;;;;;;;;;;6244170;23;20162;-87
2023/03/09 02:54:08;;;;;;;0.10;0.10;;;;;;;;;;6244702;23;20175;-87
2023/03/09 02:56:38;;;;;;;0.30;0.30;;;;;;;;;;6244399;23;20434;-88
2023/03/09 02:59:21;;;;;;;2.90;1.67;;;;;;;;;;6245020;23;20635;-86
2023/03/09 03:01:52;;;;;;;0.27;0.10;;;;;;;;;;6243673;23;20174;-86
2023/03/09 03:04:21;;;;;;;0.10;0.10;;;;;;;;;;6244084;23;20197;-87
2023/03/09 03:06:56;;;;;;;0.20;0.20;;;;;;;;;;6243493;23;20202;-89
2023/03/09 03:09:25;;;;;;;0.00;0.00;;;;;;;;;;6243954;23;20637;-88
2023/03/09 03:11:56;;;;;;;3.97;0.47;;;;;;;;;;6243760;23;20167;-89
2023/03/09 03:14:34;;;;;;;0.30;0.20;;;;;;;;;;6249556;23;20468;-90
2023/03/09 03:17:04;;;;;;;0.33;0.33;;;;;;;;;;6254172;23;20167;-88
2023/03/09 03:19:44;;;;;;;0.10;0.10;;;;;;;;;;6243633;23;20166;-90
2023/03/09 03:22:16;;;;;;;0.00;0.00;;;;;;;;;;6243269;23;20174;-89
2023/03/09 03:24:45;;;;;;;0.13;0.13;;;;;;;;;;6243960;23;20698;-88
2023/03/09 03:27:14;;;;;;;0.33;0.33;;;;;;;;;;6243636;23;20663;-88
2023/03/09 03:29:48;;;;;;;0.13;0.10;;;;;;;;;;6243672;23;20167;-89
2023/03/09 03:32:17;;;;;;;0.20;0.20;;;;;;;;;;6243894;23;20568;-88
2023/03/09 03:35:08;;;;;;;0.80;0.80;;;;;;;;;;6243514;23;20193;-90
2023/03/09 03:37:48;;;;;;;0.20;0.20;;;;;;;;;;6244271;22;20666;-88
2023/03/09 03:40:25;;;;;;;0.13;0.10;;;;;;;;;;6244670;23;20621;-88
2023/03/09 03:43:12;;;;;;;;;;;;;;;;;;;;;
2023/03/09 03:45:59;;;;;;;0.20;0.20;;;;;;;;;;6245856;23;20167;-90
2023/03/09 03:48:30;;;;;;;0.10;0.10;;;;;;;;;;6247026;22;20221;-88
2023/03/09 03:50:59;;;;;;;1.17;0.37;;;;;;;;;;6244409;23;20242;-88
2023/03/09 03:53:42;;;;;;;0.10;0.10;;;;;;;;;;6242500;22;20217;-90
2023/03/09 03:56:20;;;;;;;0.60;0.60;;;;;;;;;;6243266;22;20201;-88
2023/03/09 03:58:48;;;;;;;0.40;0.40;;;;;;;;;;6246648;23;20750;-88
2023/03/09 04:01:23;;;;;;;0.20;0.20;;;;;;;;;;6251776;22;20183;-87
2023/03/09 04:03:53;;;;;;;0.00;0.00;;;;;;;;;;6264542;22;20583;-87
2023/03/09 04:06:21;;;;;;;1.03;0.67;;;;;;;;;;6244160;23;20213;-91
2023/03/09 04:09:02;;;;;;;0.57;0.57;;;;;;;;;;6243278;23;20171;-88
2023/03/09 04:11:40;;;;;;;0.30;0.30;;;;;;;;;;6243717;22;20356;-88
2023/03/09 04:14:24;;;;;;;0.20;0.20;;;;;;;;;;6246231;22;20178;-88
2023/03/09 04:17:11;;;;;;;0.17;0.17;;;;;;;;;;6247939;22;20166;-90
2023/03/09 04:19:41;;;;;;;0.20;0.20;;;;;;;;;;6249034;22;20281;-89
2023/03/09 04:22:24;;;;;;;1.17;1.07;;;;;;;;;;6261397;22;20218;-88
2023/03/09 04:24:51;;;;;;;0.80;0.80;;;;;;;;;;6268465;22;20170;-87
2023/03/09 04:27:32;;;;;;;0.83;0.77;;;;;;;;;;6266877;22;20186;-88
2023/03/09 04:30:03;;;;;;;0.30;0.30;;;;;;;;;;6266205;22;20189;-88
2023/03/09 04:32:41;;;;;;;0.00;0.00;;;;;;;;;;6263149;22;20163;-89
2023/03/09 04:35:11;;;;;;;0.23;0.23;;;;;;;;;;6251152;22;20270;-88
2023/03/09 04:37:39;;;;;;;0.47;0.40;;;;;;;;;;6244763;23;20193;-88
2023/03/09 04:40:19;;;;;;;0.10;0.10;;;;;;;;;;6244684;23;20190;-88
2023/03/09 04:42:48;;;;;;;1.97;0.90;;;;;;;;;;6244865;23;20166;-90
2023/03/09 04:45:24;;;;;;;0.07;0.07;;;;;;;;;;6244234;23;20166;-89
2023/03/09 04:48:13;;;;;;;0.23;0.23;;;;;;;;;;6244305;23;20198;-87
2023/03/09 04:50:47;;;;;;;1.40;0.33;;;;;;;;;;6245764;23;20170;-89
2023/03/09 04:53:15;;;;;;;0.43;0.43;;;;;;;;;;6244631;23;20167;-89
2023/03/09 04:55:56;;;;;;;0.00;0.00;;;;;;;;;;6244209;23;20167;-90
2023/03/09 04:58:23;;;;;;;0.10;0.10;;;;;;;;;;6244939;23;20166;-89
2023/03/09 05:00:52;;;;;;;0.10;0.10;;;;;;;;;;6245653;23;20647;-89
2023/03/09 05:03:25;;;;;;;0.17;0.17;;;;;;;;;;6244537;23;20163;-89
2023/03/09 05:06:02;;;;;;;0.00;0.00;;;;;;;;;;6245751;23;20226;-90
2023/03/09 05:08:31;;;;;;;0.10;0.10;;;;;;;;;;6244142;23;20170;-91
2023/03/09 05:11:02;;;;;;;5.70;0.70;;;;;;;;;;6244394;23;20187;-89
2023/03/09 05:13:35;;;;;;;0.20;0.20;;;;;;;;;;6244274;23;20640;-89
2023/03/09 05:16:17;;;;;;;0.20;0.20;;;;;;;;;;6244541;23;20245;-90
2023/03/09 05:18:50;;;;;;;0.10;0.10;;;;;;;;;;6243796;23;20624;-89
2023/03/09 05:21:48;;;;;;;0.00;0.00;;;;;;;;;;6243676;23;20174;-90
2023/03/09 05:24:25;;;;;;;1.23;1.13;;;;;;;;;;6242731;23;20194;-87
2023/03/09 05:26:54;;;;;;;0.57;0.57;;;;;;;;;;6250751;23;20194;-87
2023/03/09 05:29:25;;;;;;;0.37;0.37;;;;;;;;;;6247000;23;20166;-89
2023/03/09 05:32:08;;;;;;;0.40;0.40;;;;;;;;;;6248772;23;20177;-89
2023/03/09 05:34:36;;;;;;;1.87;1.77;;;;;;;;;;6249751;23;20171;-88
2023/03/09 05:37:09;;;;;;;0.23;0.23;;;;;;;;;;6247771;23;20264;-88
2023/03/09 05:39:49;;;;;;;0.37;0.37;;;;;;;;;;6247821;23;20163;-89
2023/03/09 05:42:22;;;;;;;1.23;0.60;;;;;;;;;;6244360;23;20167;-87
2023/03/09 05:45:04;;;;;;;0.07;0.07;;;;;;;;;;6246941;23;20197;-88
2023/03/09 05:47:42;;;;;;;0.57;0.33;;;;;;;;;;6245905;23;20482;-90
2023/03/09 05:50:15;;;;;;;0.10;0.10;;;;;;;;;;6246121;23;20237;-89
2023/03/09 05:52:48;;;;;;;0.30;0.23;;;;;;;;;;6248396;23;20168;-87
2023/03/09 05:55:36;;;;;;;2.60;0.50;;;;;;;;;;6247449;23;20170;-89
2023/03/09 05:58:16;;;;;;;1.00;0.83;;;;;;;;;;6247911;23;20486;-88
2023/03/09 06:01:10;;;;;;;0.53;0.53;;;;;;;;;;6246454;23;20204;-89
2023/03/09 06:03:45;;;;;;;0.43;0.43;;;;;;;;;;6245583;23;20167;-87
2023/03/09 06:06:35;;;;;;;0.27;0.27;;;;;;;;;;6247533;23;20171;-88
2023/03/09 06:09:23;;;;;;;1.57;0.67;;;;;;;;;;6248012;23;20611;-87
2023/03/09 06:15:07;;;;;;;0.40;0.40;;;;;;;;;;6248537;23;20186;-88
2023/03/09 06:17:39;;;;;;;0.20;0.10;;;;;;;;;;6249422;23;20176;-89
2023/03/09 06:20:19;;;;;;;0.07;0.07;;;;;;;;;;6250388;23;20587;-89
2023/03/09 06:23:07;;;;;;;0.30;0.30;;;;;;;;;;6250534;23;20169;-88
2023/03/09 06:25:50;;;;;;;;;;;;;;;;;;;;;
2023/03/09 06:28:17;;;;;;;0.13;0.13;;;;;;;;;;6244815;23;20739;-90
2023/03/09 06:30:55;;;;;;;0.60;0.30;;;;;;;;;;6243661;23;20604;-89
2023/03/09 06:33:25;;;;;;;0.20;0.20;;;;;;;;;;6243575;23;20253;-89
2023/03/09 06:36:00;;;;;;;2.17;1.03;;;;;;;;;;6244353;23;20213;-90
2023/03/09 06:41:33;;;;;;;0.20;0.20;;;;;;;;;;6246834;23;20231;-91
2023/03/09 06:44:06;;;;;;;1.60;1.10;;;;;;;;;;6244871;23;20199;-91
2023/03/09 06:49:44;;;;;;;0.30;0.30;;;;;;;;;;6244717;23;20198;-91
2023/03/09 06:58:06;;;;;;;0.47;0.47;;;;;;;;;;6153179;23;20203;-89
2023/03/09 07:00:43;;;;;;;0.63;0.63;;;;;;;;;;6246931;23;20221;-90
2023/03/09 07:03:21;;;;;;;0.20;0.20;;;;;;;;;;6260814;23;20169;-89
2023/03/09 07:05:52;;;;;;;0.10;0.10;;;;;;;;;;6261214;23;20165;-89
2023/03/09 07:08:33;;;;;;;0.40;0.40;;;;;;;;;;6261995;23;20202;-89
2023/03/09 07:11:08;;;;;;;0.47;0.47;;;;;;;;;;6263772;23;20194;-87
2023/03/09 07:13:57;;;;;;;4.73;0.77;;;;;;;;;;6262387;23;20213;-89
2023/03/09 07:16:49;;;;;;;;;;;;;;;;;;;;;
2023/03/09 07:19:26;;;;;;;0.10;0.10;;;;;;;;;;6244913;23;20201;-90
2023/03/09 07:22:00;;;;;;;0.10;0.10;;;;;;;;;;6251204;23;20631;-87
2023/03/09 07:24:31;;;;;;;2.00;1.03;;;;;;;;;;6249439;23;20173;-90
2023/03/09 07:27:20;;;;;;;0.33;0.33;;;;;;;;;;6249373;23;20210;-90
2023/03/09 07:29:53;;;;;;;0.90;0.90;;;;;;;;;;6247919;23;20168;-90
2023/03/09 07:35:44;;;;;;;0.80;0.80;;;;;;;;;;6122648;23;20692;-89
2023/03/09 07:41:43;;;;;;;;;;;;;;;;;;;;;
2023/03/09 07:47:23;;;;;;;0.37;0.37;;;;;;;;;;6212141;23;20205;-91
2023/03/09 07:49:56;;;;;;;0.00;0.00;;;;;;;;;;6250100;23;20193;-91
2023/03/09 07:52:48;;;;;;;0.57;0.57;;;;;;;;;;6247920;23;20166;-89
2023/03/09 07:55:33;;;;;;;;;;;;;;;;;;;;;
2023/03/09 07:58:05;;;;;;;0.43;0.43;;;;;;;;;;6247344;23;20166;-90
2023/03/09 08:00:39;;;;;;;0.67;0.67;;;;;;;;;;6246148;23;20224;-90
2023/03/09 08:06:19;;;;;;;0.37;0.37;;;;;;;;;;6231824;23;20231;-89
2023/03/09 08:09:06;;;;;;;0.50;0.50;;;;;;;;;;6123987;23;20611;-90
2023/03/09 08:14:50;;;;;;;0.60;0.60;;;;;;;;;;6209510;23;20181;-87
2023/03/09 08:17:50;;;;;;;0.30;0.23;;;;;;;;;;6246086;23;20253;-89
2023/03/09 08:20:28;;;;;;;0.67;0.67;;;;;;;;;;6245232;23;20167;-90
2023/03/09 08:23:17;;;;;;;;;;;;;;;;;;;;;
2023/03/09 08:25:58;;;;;;;1.90;0.93;;;;;;;;;;6239957;23;20197;-88
2023/03/09 08:28:40;;;;;;;0.20;0.20;;;;;;;;;;6243587;23;20229;-91
2023/03/09 08:34:23;;;;;;;0.33;0.33;;;;;;;;;;6244552;23;20200;-90
2023/03/09 08:37:01;;;;;;;0.30;0.30;;;;;;;;;;6242786;23;20247;-91
2023/03/09 08:39:50;;;;;;;0.53;0.53;;;;;;;;;;6243935;23;20190;-90
2023/03/09 08:42:21;;;;;;;0.60;0.60;;;;;;;;;;6243513;23;20739;-91
2023/03/09 08:48:05;;;;;;;1.60;1.53;;;;;;;;;;6238696;23;20307;-90
2023/03/09 08:50:53;;;;;;;;;;;;;;;;;;;;;
2023/03/09 08:53:37;;;;;;;0.90;0.73;;;;;;;;;;6243286;23;20207;-89
2023/03/09 08:56:22;;;;;;;0.60;0.60;;;;;;;;;;6243688;23;20192;-90
2023/03/09 08:58:54;;;;;;;2.63;0.73;;;;;;;;;;6240987;23;20190;-90
2023/03/09 09:01:24;;;;;;;0.30;0.30;;;;;;;;;;6244125;23;20207;-89
2023/03/09 09:04:06;;;;;;;4.83;0.40;;;;;;;;;;6237554;23;20191;-91
2023/03/09 09:06:38;;;;;;;0.73;0.73;;;;;;;;;;6244739;23;20194;-91
2023/03/09 09:11:55;;;;;;;2.17;1.13;;;;;;;;;;6115815;23;20228;-90
2023/03/09 09:14:27;;;;;;;0.47;0.47;;;;;;;;;;6119961;23;20197;-89
2023/03/09 09:17:01;;;;;;;0.20;0.20;;;;;;;;;;6120502;23;20201;-90
2023/03/09 09:19:44;;;;;;;0.50;0.50;;;;;;;;;;6119131;23;20213;-88
2023/03/09 09:22:18;;;;;;;0.30;0.30;;;;;;;;;;6119298;23;20698;-90
2023/03/09 09:24:47;;;;;;;0.60;0.40;;;;;;;;;;6117053;23;20658;-90
2023/03/09 09:27:20;;;;;;;0.17;0.17;;;;;;;;;;6117888;23;20222;-88
2023/03/09 09:39:01;;;;;;;2.03;1.90;;;;;;;;;;5977896;23;20360;-87
2023/03/09 09:41:38;;;;;;;0.57;0.57;;;;;;;;;;6084231;23;20194;-87
2023/03/09 09:44:14;;;;;;;0.20;0.20;;;;;;;;;;6119508;23;20197;-88
2023/03/09 09:46:45;;;;;;;0.07;0.07;;;;;;;;;;6116261;23;20670;-89
2023/03/09 09:49:24;;;;;;;0.38;0.38;;;;;;;;;;6116192;23;20204;-87
2023/03/09 09:52:12;;;;;;;0.10;0.10;;;;;;;;;;6117404;23;20200;-89
2023/03/09 09:54:47;;;;;;;0.30;0.30;;;;;;;;;;5968417;23;20345;-90
2023/03/09 09:57:22;;;;;;;0.30;0.30;;;;;;;;;;6114985;23;20254;-89
2023/03/09 10:00:04;;;;;;;0.30;0.30;;;;;;;;;;6116116;23;20700;-88
2023/03/09 10:03:05;;;;;;;0.63;0.52;;;;;;;;;;6115994;23;20193;-90
2023/03/09 10:05:39;;;;;;;0.15;0.15;;;;;;;;;;6112186;23;20200;-89
2023/03/09 10:08:27;;;;;;;2.60;0.60;;;;;;;;;;6089678;23;20745;-90
2023/03/09 10:11:14;;;;;;;0.10;0.10;;;;;;;;;;6114778;23;20251;-90
2023/03/09 10:13:55;;;;;;;0.35;0.17;;;;;;;;;;6117420;23;20591;-91
2023/03/09 10:16:32;;;;;;;0.10;0.10;;;;;;;;;;6114624;23;20236;-91
2023/03/09 10:19:20;;;;;;;;;;;;;;;;;;;;;
2023/03/09 10:21:55;;;;;;;0.15;0.15;;;;;;;;;;6115831;23;20211;-89
2023/03/09 10:24:31;;;;;;;0.00;0.00;;;;;;;;;;6116899;23;20261;-90
2023/03/09 10:27:35;;;;;;;0.25;0.13;;;;;;;;;;6116696;23;20586;-88
2023/03/09 10:30:14;;;;;;;0.00;0.00;;;;;;;;;;6059599;23;20761;-89
2023/03/09 10:32:52;;;;;;;0.40;0.40;;;;;;;;;;6065971;23;20569;-87
2023/03/09 10:35:48;;;;;;;0.00;0.00;;;;;;;;;;6120560;23;20195;-88
2023/03/09 10:38:23;;;;;;;0.15;0.15;;;;;;;;;;6125770;23;20196;-89
2023/03/09 10:41:06;;;;;;;0.00;0.00;;;;;;;;;;6120620;23;20201;-90
2023/03/09 10:43:39;;;;;;;0.00;0.00;;;;;;;;;;6121921;23;20203;-90
2023/03/09 10:46:23;;;;;;;0.00;0.00;;;;;;;;;;6120260;23;20273;-90
2023/03/09 10:49:11;;;;;;;0.20;0.20;;;;;;;;;;6125299;23;20213;-91
2023/03/09 10:51:43;;;;;;;0.35;0.35;;;;;;;;;;6121475;23;20204;-90
2023/03/09 10:54:38;;;;;;;0.15;0.15;;;;;;;;;;6129448;23;20204;-89
2023/03/09 10:57:37;;;;;;;;;;;;;;;;;;;;;
2023/03/09 11:00:22;;;;;;;0.13;0.13;;;;;;;;;;6128136;23;20193;-90
2023/03/09 11:03:06;;;;;;;;;;;;;;;;;;;;;
2023/03/09 11:08:59;;;;;;;0.10;0.10;;;;;;;;;;6113169;23;20209;-90
2023/03/09 11:11:38;;;;;;;0.00;0.00;;;;;;;;;;6125092;23;20291;-90
2023/03/09 11:14:45;;;;;;;0.10;0.10;;;;;;;;;;6130254;23;20270;-90
2023/03/09 11:17:43;;;;;;;0.20;0.20;;;;;;;;;;6127755;23;20197;-90
2023/03/09 11:20:33;;;;;;;0.00;0.00;;;;;;;;;;6128154;23;20200;-90
2023/03/09 11:23:17;;;;;;;0.20;0.20;;;;;;;;;;6123306;23;20201;-90
2023/03/09 11:26:02;;;;;;;0.10;0.10;;;;;;;;;;6131993;23;20221;-88
2023/03/09 11:28:45;;;;;;;0.10;0.10;;;;;;;;;;6072934;23;20218;-89
2023/03/09 11:31:20;;;;;;;0.00;0.00;;;;;;;;;;6072777;23;20281;-88
2023/03/09 11:34:05;;;;;;;0.22;0.22;;;;;;;;;;6067624;23;20229;-90
2023/03/09 11:36:54;;;;;;;;;;;;;;;;;;;;;
2023/03/09 11:39:56;;;;;;;0.00;0.00;;;;;;;;;;6066289;23;20205;-90
2023/03/09 11:42:33;;;;;;;0.00;0.00;;;;;;;;;;6084239;23;20201;-89
2023/03/09 11:45:09;;;;;;;0.20;0.10;;;;;;;;;;6123434;23;20247;-90
2023/03/09 11:47:55;;;;;;;0.20;0.20;;;;;;;;;;6116127;23;20212;-89
2023/03/09 11:50:38;;;;;;;0.00;0.00;;;;;;;;;;6118929;23;20236;-89
2023/03/09 11:53:14;;;;;;;0.00;0.00;;;;;;;;;;6113801;23;20193;-90
2023/03/09 11:56:14;;;;;;;0.00;0.00;;;;;;;;;;6120750;23;20201;-91
2023/03/09 11:59:09;;;;;;;0.75;0.70;;;;;;;;;;6118371;23;20203;-90
2023/03/09 12:02:17;;;;;;;0.45;0.45;;;;;;;;;;6121553;23;20201;-90
2023/03/09 12:05:21;;;;;;;0.00;0.00;;;;;;;;;;6117824;23;20197;-89
2023/03/09 12:10:49;;;;;;;0.00;0.00;;;;;;;;;;6113064;23;20274;-90
2023/03/09 12:13:20;;;;;;;0.10;0.10;;;;;;;;;;6119147;23;20536;-88
2023/03/09 12:16:02;;;;;;;0.10;0.10;;;;;;;;;;6120157;23;20465;-89
2023/03/09 12:19:05;;;;;;;0.35;0.20;;;;;;;;;;6118582;23;20687;-89
2023/03/09 12:21:52;;;;;;;0.03;0.03;;;;;;;;;;6118241;23;20197;-89
2023/03/09 12:24:35;;;;;;;0.13;0.10;;;;;;;;;;6116577;23;20192;-90
2023/03/09 12:27:20;;;;;;;0.00;0.00;;;;;;;;;;6119530;23;20216;-89
2023/03/09 12:30:03;;;;;;;0.00;0.00;;;;;;;;;;6119041;23;20239;-88
2023/03/09 12:33:00;;;;;;;;;;;;;;;;;;;;;
2023/03/09 12:35:49;;;;;;;0.22;0.22;;;;;;;;;;6119156;23;20647;-90
2023/03/09 12:42:02;;;;;;;0.00;0.00;;;;;;;;;;6044675;23;20218;-89
2023/03/09 12:45:02;;;;;;;0.00;0.00;;;;;;;;;;6089577;23;20201;-89
2023/03/09 12:47:50;;;;;;;0.20;0.20;;;;;;;;;;6119352;23;20197;-90
2023/03/09 12:50:31;;;;;;;0.52;0.17;;;;;;;;;;6117450;23;20217;-90
2023/03/09 12:53:10;;;;;;;0.10;0.10;;;;;;;;;;6118765;23;20194;-90
2023/03/09 12:55:59;;;;;;;0.10;0.10;;;;;;;;;;6117022;23;20190;-91
2023/03/09 12:58:55;;;;;;;0.10;0.10;;;;;;;;;;6119540;23;20196;-89
2023/03/09 13:01:47;;;;;;;0.10;0.10;;;;;;;;;;6117574;23;20198;-89
2023/03/09 13:04:39;;;;;;;;;;;;;;;;;;;;;
2023/03/09 13:07:19;;;;;;;0.00;0.00;;;;;;;;;;6119130;23;20279;-90
2023/03/09 13:09:57;;;;;;;0.00;0.00;;;;;;;;;;6119402;23;20623;-91
2023/03/09 13:12:45;;;;;;;0.10;0.10;;;;;;;;;;6117423;23;20714;-90
2023/03/09 13:15:35;;;;;;;0.08;0.08;;;;;;;;;;6115284;23;20197;-89
2023/03/09 13:18:16;;;;;;;0.00;0.00;;;;;;;;;;6120094;23;20245;-90
2023/03/09 13:20:57;;;;;;;0.00;0.00;;;;;;;;;;6120182;23;20711;-88
2023/03/09 13:23:43;;;;;;;0.00;0.00;;;;;;;;;;6119371;23;20175;-91
2023/03/09 13:26:33;;;;;;;;;;;;;;;;;;;;;
2023/03/09 13:29:14;;;;;;;0.25;0.25;;;;;;;;;;6120919;23;20202;-88
2023/03/09 13:35:02;;;;;;;0.20;0.20;;;;;;;;;;6122594;23;20227;-90
2023/03/09 13:38:02;;;;;;;0.00;0.00;;;;;;;;;;6121901;23;20182;-90
2023/03/09 13:40:43;;;;;;;0.10;0.10;;;;;;;;;;6122901;23;20186;-88
2023/03/09 13:43:32;;;;;;;0.00;0.00;;;;;;;;;;6120206;23;20176;-89
2023/03/09 13:49:15;;;;;;;0.00;0.00;;;;;;;;;;6006664;23;20673;-89
2023/03/09 13:52:10;;;;;;;0.17;0.10;;;;;;;;;;6126477;23;20169;-90
2023/03/09 13:54:50;;;;;;;0.10;0.10;;;;;;;;;;6122027;23;20176;-89
2023/03/09 13:57:28;;;;;;;0.00;0.00;;;;;;;;;;6121435;23;20235;-89
2023/03/09 14:00:15;;;;;;;0.10;0.10;;;;;;;;;;6122016;23;20702;-89
2023/03/09 14:05:50;;;;;;;0.00;0.00;;;;;;;;;;6136486;23;20207;-92
2023/03/09 14:08:39;;;;;;;0.10;0.10;;;;;;;;;;6104134;23;20552;-91
2023/03/09 14:11:25;;;;;;;0.00;0.00;;;;;;;;;;6121754;23;20213;-90
2023/03/09 14:14:10;;;;;;;0.00;0.00;;;;;;;;;;6126699;23;20166;-89
2023/03/09 14:17:07;;;;;;;0.00;0.00;;;;;;;;;;6120985;23;20196;-90
2023/03/09 14:19:42;;;;;;;0.00;0.00;;;;;;;;;;6122140;23;20639;-92
2023/03/09 14:22:37;;;;;;;0.45;0.45;;;;;;;;;;6122946;23;20185;-91
2023/03/09 14:25:37;;;;;;;0.60;0.22;;;;;;;;;;6123408;23;20177;-89
2023/03/09 14:28:22;;;;;;;0.00;0.00;;;;;;;;;;6123412;23;20173;-90
2023/03/09 14:31:11;;;;;;;0.00;0.00;;;;;;;;;;6128623;23;20262;-91
2023/03/09 14:34:03;;;;;;;1.75;0.55;;;;;;;;;;6125089;23;20253;-89
2023/03/09 14:36:44;;;;;;;0.03;0.03;;;;;;;;;;6124361;23;20166;-87
2023/03/09 14:39:31;;;;;;;0.05;0.05;;;;;;;;;;6123985;23;20185;-89
2023/03/09 14:42:30;;;;;;;0.13;0.13;;;;;;;;;;6131287;23;20168;-89
2023/03/09 14:51:19;;;;;;;0.20;0.10;;;;;;;;;;6100684;23;20210;-89
2023/03/09 14:57:24;;;;;;;0.10;0.10;;;;;;;;;;6119720;23;20194;-89
2023/03/09 15:00:12;;;;;;;;;;;;;;;;;;;;;
2023/03/09 15:03:01;;;;;;;0.20;0.20;;;;;;;;;;6126806;23;20167;-89
2023/03/09 15:05:50;;;;;;;0.00;0.00;;;;;;;;;;6127812;23;20686;-88
2023/03/09 15:08:33;;;;;;;0.00;0.00;;;;;;;;;;6118981;23;20310;-89
2023/03/09 15:11:09;;;;;;;0.00;0.00;;;;;;;;;;6116321;23;20217;-90
2023/03/09 15:13:58;;;;;;;0.00;0.00;;;;;;;;;;6120028;23;20176;-89
2023/03/09 15:16:41;;;;;;;0.10;0.10;;;;;;;;;;6118117;23;20234;-89
2023/03/09 15:19:38;;;;;;;0.10;0.03;;;;;;;;;;6120592;23;20177;-90
2023/03/09 15:22:14;;;;;;;0.30;0.30;;;;;;;;;;6127487;23;20175;-89
2023/03/09 15:24:56;;;;;;;;;;;;;;;;;;;;;
2023/03/09 15:27:40;;;;;;;0.20;0.20;;;;;;;;;;6121363;23;20169;-91
2023/03/09 15:33:01;;;;;;;0.40;0.40;;;;;;;;;;6114424;23;20235;-91
2023/03/09 15:35:36;;;;;;;0.57;0.57;;;;;;;;;;6119447;23;20189;-88
2023/03/09 15:38:17;;;;;;;0.10;0.10;;;;;;;;;;6119853;23;20248;-88
2023/03/09 15:41:15;;;;;;;2.33;0.40;;;;;;;;;;6120624;23;20173;-89
2023/03/09 15:46:47;;;;;;;0.10;0.10;;;;;;;;;;6125615;23;20232;-90
2023/03/09 15:49:18;;;;;;;0.10;0.10;;;;;;;;;;6122278;23;20674;-90
2023/03/09 15:52:12;;;;;;;0.10;0.10;;;;;;;;;;6124311;23;20195;-89
2023/03/09 15:55:16;;;;;;;0.00;0.00;;;;;;;;;;6134962;23;20204;-89
2023/03/09 15:58:04;;;;;;;;;;;;;;;;;;;;;
2023/03/09 16:00:40;;;;;;;0.17;0.17;;;;;;;;;;6137038;23;20173;-89
2023/03/09 16:03:18;;;;;;;2.13;0.35;;;;;;;;;;6135866;23;20171;-89
2023/03/09 16:05:49;;;;;;;0.73;0.73;;;;;;;;;;6135296;23;20176;-88
2023/03/09 16:08:32;;;;;;;0.20;0.20;;;;;;;;;;6127938;23;20170;-90
2023/03/09 16:11:08;;;;;;;0.35;0.35;;;;;;;;;;6118658;23;20214;-89
2023/03/09 16:13:38;;;;;;;0.00;0.00;;;;;;;;;;6129746;23;20171;-90
2023/03/09 16:16:07;;;;;;;0.65;0.65;;;;;;;;;;6124431;23;20178;-90
2023/03/09 16:18:39;;;;;;;0.32;0.20;;;;;;;;;;6135432;23;20174;-89
2023/03/09 16:21:25;;;;;;;0.00;0.00;;;;;;;;;;6122513;23;20225;-89
2023/03/09 16:24:19;;;;;;;0.30;0.30;;;;;;;;;;6122049;23;20167;-89
2023/03/09 16:27:11;;;;;;;0.20;0.20;;;;;;;;;;6118736;23;20184;-89
2023/03/09 16:30:07;;;;;;;0.03;0.03;;;;;;;;;;6120394;23;20528;-90
2023/03/09 16:41:53;;;;;;;1.10;0.47;;;;;;;;;;6089921;23;20185;-89
2023/03/09 16:44:32;;;;;;;0.30;0.30;;;;;;;;;;6120222;23;20170;-89
2023/03/09 16:47:06;;;;;;;0.95;0.95;;;;;;;;;;6121282;23;20186;-89
2023/03/09 16:49:43;;;;;;;0.25;0.25;;;;;;;;;;6120076;23;20171;-89
2023/03/09 16:58:55;;;;;;;0.28;0.28;;;;;;;;;;6085981;23;20180;-90
2023/03/09 17:01:51;;;;;;;0.57;0.57;;;;;;;;;;6120301;23;20171;-90
2023/03/09 17:04:40;;;;;;;0.38;0.38;;;;;;;;;;6112437;23;20183;-91
2023/03/09 17:07:18;;;;;;;2.38;0.63;;;;;;;;;;6120222;23;20174;-88
2023/03/09 17:09:58;;;;;;;0.68;0.68;;;;;;;;;;6120551;23;20250;-89
2023/03/09 17:12:35;;;;;;;0.52;0.52;;;;;;;;;;6122154;23;20173;-88
2023/03/09 17:15:06;;;;;;;0.95;0.30;;;;;;;;;;6120458;23;20634;-90
2023/03/09 17:17:52;;;;;;;0.32;0.32;;;;;;;;;;6119544;23;20281;-88
2023/03/09 17:20:44;;;;;;;1.75;0.32;;;;;;;;;;6118551;23;20209;-89
2023/03/09 17:26:42;;;;;;;1.48;1.38;;;;;;;;;;6088161;23;20628;-89
2023/03/09 17:32:09;;;;;;;1.13;1.10;;;;;;;;;;6114936;23;20212;-90
2023/03/09 17:35:15;;;;;;;;;;;;;;;;;;;;;
2023/03/09 17:37:58;;;;;;;0.40;0.40;;;;;;;;;;6116358;23;20274;-90
2023/03/09 17:46:42;;;;;;;0.20;0.20;;;;;;;;;;6116092;23;20251;-89
2023/03/09 17:49:37;;;;;;;0.47;0.47;;;;;;;;;;6118883;23;20202;-90
2023/03/09 17:58:10;;;;;;;0.97;0.97;;;;;;;;;;6137548;23;20255;-89
2023/03/09 18:01:24;;;;;;;0.53;0.53;;;;;;;;;;6120567;23;20225;-91
2023/03/09 18:07:02;;;;;;;1.50;0.97;;;;;;;;;;6112942;23;20780;-90
2023/03/09 18:09:45;;;;;;;1.03;1.03;;;;;;;;;;6118315;23;20294;-89
2023/03/09 18:15:31;;;;;;;0.90;0.63;;;;;;;;;;6118746;23;20194;-89
2023/03/09 18:21:44;;;;;;;0.80;0.80;;;;;;;;;;6098983;22;20566;-90
2023/03/09 18:24:30;;;;;;;0.33;0.33;;;;;;;;;;6093501;23;20569;-89
2023/03/09 18:30:14;;;;;;;0.10;0.10;;;;;;;;;;6067685;23;20418;-89
2023/03/09 18:45:08;;;;;;;2.00;0.93;;;;;;;;;;6126444;22;20196;-90